Time;durP1;ratioP1;P1;durP2;ratioP2;P2;SDS_P1;SDS_P2;PMS_P1;PMS_P2;Temp;Humidity;BMP_temperature;BMP_pressure;BME280_temperature;BME280_humidity;BME280_pressure;Samples;Min_cycle;Max_cycle;Signal;HPM_P1;HPM_P2
2022/05/25 00:02:11;;;;;;;7.43;3.72;;;;;;;;;;6189289;23;20172;-85
2022/05/25 00:05:17;;;;;;;6.30;3.78;;;;;;;;;;6170102;23;20496;-85
2022/05/25 00:08:22;;;;;;;8.27;4.40;;;;;;;;;;6190596;23;20200;-86
2022/05/25 00:11:28;;;;;;;7.30;4.32;;;;;;;;;;6190908;23;20211;-86
2022/05/25 00:14:34;;;;;;;8.00;4.18;;;;;;;;;;6172471;23;20192;-85
2022/05/25 00:17:42;;;;;;;8.40;4.20;;;;;;;;;;6188381;23;20507;-86
2022/05/25 00:20:48;;;;;;;12.43;5.10;;;;;;;;;;6189306;23;20251;-85
2022/05/25 00:23:53;;;;;;;10.18;4.60;;;;;;;;;;6188392;23;20207;-85
2022/05/25 00:26:58;;;;;;;8.52;4.72;;;;;;;;;;6188486;23;20175;-86
2022/05/25 00:30:05;;;;;;;9.63;4.60;;;;;;;;;;6171321;23;20239;-86
2022/05/25 00:33:10;;;;;;;9.50;5.05;;;;;;;;;;6190797;23;20327;-86
2022/05/25 00:36:16;;;;;;;10.15;4.85;;;;;;;;;;6171474;23;20187;-86
2022/05/25 00:39:23;;;;;;;8.43;5.18;;;;;;;;;;6173826;23;20231;-86
2022/05/25 00:42:28;;;;;;;11.40;5.22;;;;;;;;;;6189621;23;20175;-86
2022/05/25 00:45:36;;;;;;;9.32;4.47;;;;;;;;;;6190305;23;20172;-86
2022/05/25 00:48:44;;;;;;;9.98;5.35;;;;;;;;;;6190778;23;20632;-86
2022/05/25 00:51:50;;;;;;;9.73;5.50;;;;;;;;;;6173411;23;20172;-86
2022/05/25 00:54:57;;;;;;;10.65;5.70;;;;;;;;;;6190032;23;20233;-85
2022/05/25 00:58:01;;;;;;;9.95;6.35;;;;;;;;;;6172387;23;20171;-85
2022/05/25 01:01:08;;;;;;;15.38;6.35;;;;;;;;;;6172821;23;20171;-86
2022/05/25 01:04:13;;;;;;;10.65;5.90;;;;;;;;;;6188926;23;20291;-85
2022/05/25 01:07:26;;;;;;;13.63;5.93;;;;;;;;;;6189576;23;20179;-87
2022/05/25 01:10:37;;;;;;;10.60;6.70;;;;;;;;;;6193312;23;20175;-86
2022/05/25 01:13:46;;;;;;;11.23;6.60;;;;;;;;;;6176722;23;20171;-86
2022/05/25 01:17:00;;;;;;;8.98;6.30;;;;;;;;;;6165963;23;20225;-86
2022/05/25 01:20:12;;;;;;;9.60;6.30;;;;;;;;;;6206278;23;20227;-86
2022/05/25 01:23:40;;;;;;;10.98;5.90;;;;;;;;;;6189894;23;20191;-86
2022/05/25 01:27:04;;;;;;;9.70;5.45;;;;;;;;;;6179150;23;20409;-87
2022/05/25 01:30:13;;;;;;;14.02;6.13;;;;;;;;;;6190749;23;20544;-86
2022/05/25 01:33:23;;;;;;;11.63;6.60;;;;;;;;;;6172955;23;20192;-86
2022/05/25 01:36:31;;;;;;;7.80;5.70;;;;;;;;;;6171979;23;20532;-86
2022/05/25 01:39:39;;;;;;;8.32;6.30;;;;;;;;;;6172651;23;20172;-86
2022/05/25 01:42:47;;;;;;;8.10;5.85;;;;;;;;;;6174990;23;20219;-86
2022/05/25 01:45:55;;;;;;;11.98;6.18;;;;;;;;;;6192271;23;20593;-86
2022/05/25 01:49:04;;;;;;;10.10;6.63;;;;;;;;;;6175007;23;20219;-86
2022/05/25 01:52:12;;;;;;;10.02;6.47;;;;;;;;;;6178864;23;20216;-86
2022/05/25 01:55:21;;;;;;;10.57;6.72;;;;;;;;;;6193600;23;20163;-84
2022/05/25 01:58:28;;;;;;;10.65;6.88;;;;;;;;;;6210887;23;20191;-85
2022/05/25 02:01:34;;;;;;;13.10;6.97;;;;;;;;;;6212147;23;20160;-85
2022/05/25 02:04:38;;;;;;;10.43;6.95;;;;;;;;;;6196229;23;20188;-84
2022/05/25 02:07:54;;;;;;;15.52;7.63;;;;;;;;;;6195990;23;20225;-84
2022/05/25 02:11:05;;;;;;;14.07;8.20;;;;;;;;;;6196294;23;20187;-84
2022/05/25 02:14:18;;;;;;;14.57;8.07;;;;;;;;;;6197016;23;20156;-86
2022/05/25 02:17:28;;;;;;;13.05;8.30;;;;;;;;;;6196801;23;20180;-84
2022/05/25 02:20:39;;;;;;;13.82;8.45;;;;;;;;;;6213867;23;20152;-86
2022/05/25 02:23:50;;;;;;;15.60;8.52;;;;;;;;;;6195152;23;20199;-86
2022/05/25 02:27:04;;;;;;;17.77;8.50;;;;;;;;;;6194430;23;20172;-85
2022/05/25 02:30:11;;;;;;;15.43;8.45;;;;;;;;;;6195651;23;20199;-84
2022/05/25 02:33:24;;;;;;;11.85;7.50;;;;;;;;;;6213096;23;20155;-85
2022/05/25 02:36:30;;;;;;;22.63;8.65;;;;;;;;;;6212486;23;20196;-86
2022/05/25 02:39:36;;;;;;;16.52;7.38;;;;;;;;;;6209936;23;20173;-85
2022/05/25 02:42:48;;;;;;;12.52;7.95;;;;;;;;;;6185712;23;20527;-85
2022/05/25 02:45:55;;;;;;;15.70;8.40;;;;;;;;;;6179676;23;20207;-86
2022/05/25 02:49:01;;;;;;;11.60;8.38;;;;;;;;;;6160932;23;20196;-86
2022/05/25 02:52:08;;;;;;;12.48;7.70;;;;;;;;;;6192728;23;20250;-85
2022/05/25 02:55:14;;;;;;;11.65;7.70;;;;;;;;;;6174259;23;20214;-86
2022/05/25 02:58:19;;;;;;;13.18;7.65;;;;;;;;;;6191529;23;20207;-86
2022/05/25 03:01:26;;;;;;;12.23;7.05;;;;;;;;;;6173403;23;20187;-86
2022/05/25 03:04:32;;;;;;;12.13;7.00;;;;;;;;;;6173635;23;20175;-86
2022/05/25 03:07:37;;;;;;;12.77;7.68;;;;;;;;;;6192028;23;20175;-86
2022/05/25 03:10:44;;;;;;;18.50;8.45;;;;;;;;;;6174248;23;20315;-86
2022/05/25 03:13:50;;;;;;;15.30;8.05;;;;;;;;;;6174186;23;20179;-86
2022/05/25 03:16:55;;;;;;;11.65;7.80;;;;;;;;;;6173859;23;20175;-86
2022/05/25 03:20:07;;;;;;;13.10;8.07;;;;;;;;;;6200657;23;20159;-92
2022/05/25 03:23:12;;;;;;;13.25;7.80;;;;;;;;;;6186323;23;20183;-86
2022/05/25 03:26:18;;;;;;;16.20;8.57;;;;;;;;;;6184786;23;20175;-86
2022/05/25 03:29:23;;;;;;;18.25;7.72;;;;;;;;;;6174102;23;20568;-86
2022/05/25 03:32:28;;;;;;;15.27;8.65;;;;;;;;;;6172253;23;20586;-86
2022/05/25 03:35:34;;;;;;;15.15;7.55;;;;;;;;;;6174720;23;20810;-87
2022/05/25 03:38:39;;;;;;;13.27;7.20;;;;;;;;;;6190681;23;20528;-85
2022/05/25 03:41:44;;;;;;;15.50;8.40;;;;;;;;;;6170996;23;20176;-85
2022/05/25 03:44:49;;;;;;;12.57;8.27;;;;;;;;;;6171076;23;20299;-86
2022/05/25 03:47:53;;;;;;;13.50;8.27;;;;;;;;;;6171947;23;20544;-86
2022/05/25 03:51:00;;;;;;;15.25;8.15;;;;;;;;;;6171533;23;20759;-85
2022/05/25 03:54:05;;;;;;;12.07;8.00;;;;;;;;;;6171722;23;20286;-85
2022/05/25 03:57:10;;;;;;;13.07;7.47;;;;;;;;;;6192667;23;20175;-84
2022/05/25 04:00:16;;;;;;;10.73;7.40;;;;;;;;;;6192368;23;20167;-85
2022/05/25 04:03:21;;;;;;;13.75;8.13;;;;;;;;;;6187418;23;20194;-85
2022/05/25 04:06:28;;;;;;;13.00;8.60;;;;;;;;;;6189122;23;20413;-85
2022/05/25 04:09:33;;;;;;;12.77;7.28;;;;;;;;;;6172111;23;20242;-86
2022/05/25 04:12:38;;;;;;;12.77;7.70;;;;;;;;;;6172967;23;20222;-85
2022/05/25 04:15:43;;;;;;;11.73;7.47;;;;;;;;;;6172411;23;20532;-86
2022/05/25 04:18:48;;;;;;;13.32;7.75;;;;;;;;;;6171941;23;20215;-86
2022/05/25 04:21:54;;;;;;;12.98;7.93;;;;;;;;;;6172617;23;20521;-85
2022/05/25 04:25:01;;;;;;;11.45;7.65;;;;;;;;;;6172460;23;20222;-85
2022/05/25 04:28:06;;;;;;;13.63;8.00;;;;;;;;;;6190358;23;20172;-85
2022/05/25 04:31:11;;;;;;;15.07;8.32;;;;;;;;;;6172247;23;20449;-85
2022/05/25 04:34:16;;;;;;;16.73;8.80;;;;;;;;;;6172745;23;20262;-86
2022/05/25 04:40:47;;;;;;;14.75;8.80;;;;;;;;;;6189993;23;20214;-85
2022/05/25 04:43:53;;;;;;;15.95;8.73;;;;;;;;;;6171820;23;20536;-86
2022/05/25 04:46:58;;;;;;;12.48;8.35;;;;;;;;;;6189005;23;20532;-86
2022/05/25 04:50:05;;;;;;;14.60;8.27;;;;;;;;;;6190088;23;20196;-85
2022/05/25 04:53:13;;;;;;;13.13;7.72;;;;;;;;;;6190132;23;20246;-85
2022/05/25 04:59:41;;;;;;;11.93;7.65;;;;;;;;;;6188880;23;20208;-86
2022/05/25 05:02:46;;;;;;;16.10;8.45;;;;;;;;;;6189687;23;20179;-85
2022/05/25 05:05:52;;;;;;;12.00;7.47;;;;;;;;;;6188167;23;20303;-84
2022/05/25 05:08:58;;;;;;;17.13;9.27;;;;;;;;;;6189900;23;20543;-86
2022/05/25 05:12:03;;;;;;;11.90;8.43;;;;;;;;;;6171684;23;20207;-86
2022/05/25 05:15:09;;;;;;;18.00;9.52;;;;;;;;;;6189255;23;20280;-85
2022/05/25 05:18:14;;;;;;;13.23;8.70;;;;;;;;;;6173010;23;20216;-86
2022/05/25 05:21:45;;;;;;;15.80;9.07;;;;;;;;;;6173006;23;20187;-86
2022/05/25 05:24:53;;;;;;;14.82;8.98;;;;;;;;;;6173063;23;20257;-86
2022/05/25 05:28:03;;;;;;;24.65;9.70;;;;;;;;;;6172809;23;20222;-86
2022/05/25 05:31:08;;;;;;;18.65;10.05;;;;;;;;;;6171607;23;20250;-86
2022/05/25 05:34:13;;;;;;;19.42;11.13;;;;;;;;;;6173500;23;20191;-86
2022/05/25 05:37:24;;;;;;;13.90;9.57;;;;;;;;;;6189484;23;20242;-86
2022/05/25 05:40:31;;;;;;;20.58;10.00;;;;;;;;;;6172908;23;20291;-86
2022/05/25 05:43:36;;;;;;;26.67;9.32;;;;;;;;;;6172077;23;20172;-85
2022/05/25 05:46:42;;;;;;;13.38;9.07;;;;;;;;;;6171381;23;20175;-85
2022/05/25 05:49:48;;;;;;;16.98;9.38;;;;;;;;;;6189267;23;20199;-86
2022/05/25 05:52:56;;;;;;;16.67;9.50;;;;;;;;;;6191422;23;20171;-85
2022/05/25 05:56:03;;;;;;;17.02;9.50;;;;;;;;;;6174561;23;20215;-85
2022/05/25 05:59:09;;;;;;;17.27;9.80;;;;;;;;;;6172216;23;20191;-85
2022/05/25 06:02:14;;;;;;;20.45;10.38;;;;;;;;;;6171123;23;20550;-86
2022/05/25 06:05:19;;;;;;;19.92;10.80;;;;;;;;;;6172773;23;20295;-86
2022/05/25 06:08:26;;;;;;;18.83;10.60;;;;;;;;;;6174392;23;20224;-85
2022/05/25 06:11:34;;;;;;;16.25;10.90;;;;;;;;;;6171737;23;20214;-87
2022/05/25 06:14:39;;;;;;;24.58;11.20;;;;;;;;;;6171961;23;20288;-86
2022/05/25 06:21:12;;;;;;;20.08;12.07;;;;;;;;;;6111276;23;20469;-87
2022/05/25 06:24:17;;;;;;;21.65;11.18;;;;;;;;;;6172917;23;20172;-87
2022/05/25 06:27:26;;;;;;;17.98;11.32;;;;;;;;;;6190975;23;20178;-87
2022/05/25 06:30:31;;;;;;;19.15;10.88;;;;;;;;;;6173767;23;20564;-86
2022/05/25 06:33:37;;;;;;;19.40;11.25;;;;;;;;;;6173118;23;20171;-87
2022/05/25 06:36:48;;;;;;;20.75;12.32;;;;;;;;;;6191586;23;20624;-87
2022/05/25 06:39:53;;;;;;;18.63;11.63;;;;;;;;;;6193300;23;20207;-87
2022/05/25 06:42:59;;;;;;;22.67;11.75;;;;;;;;;;6191699;23;20179;-87
2022/05/25 06:46:06;;;;;;;17.65;11.68;;;;;;;;;;6172368;23;20202;-89
2022/05/25 06:49:11;;;;;;;16.10;10.55;;;;;;;;;;6178536;23;20179;-88
2022/05/25 06:52:16;;;;;;;16.20;10.30;;;;;;;;;;6176851;23;20246;-88
2022/05/25 06:55:22;;;;;;;20.90;12.23;;;;;;;;;;6171902;23;20218;-88
2022/05/25 06:58:28;;;;;;;19.02;11.18;;;;;;;;;;6173088;23;20183;-87
2022/05/25 07:01:35;;;;;;;19.08;10.82;;;;;;;;;;6174682;23;20229;-87
2022/05/25 07:04:40;;;;;;;17.05;9.98;;;;;;;;;;6176423;23;20199;-89
2022/05/25 07:07:48;;;;;;;15.55;9.68;;;;;;;;;;6175591;23;20183;-88
2022/05/25 07:10:55;;;;;;;16.58;9.00;;;;;;;;;;6175586;23;20247;-88
2022/05/25 07:14:02;;;;;;;18.00;9.70;;;;;;;;;;6175602;23;20178;-90
2022/05/25 07:17:08;;;;;;;18.20;8.82;;;;;;;;;;6173714;23;20432;-86
2022/05/25 07:20:14;;;;;;;15.73;8.45;;;;;;;;;;6190758;23;20175;-88
2022/05/25 07:23:19;;;;;;;15.57;8.50;;;;;;;;;;6175292;23;20206;-88
2022/05/25 07:26:26;;;;;;;15.18;7.90;;;;;;;;;;6172597;23;20171;-88
2022/05/25 07:29:32;;;;;;;14.00;7.45;;;;;;;;;;6173052;23;20175;-87
2022/05/25 07:32:38;;;;;;;10.93;6.88;;;;;;;;;;6174833;23;20172;-88
2022/05/25 07:35:46;;;;;;;13.25;7.88;;;;;;;;;;6173733;23;20179;-87
2022/05/25 07:38:53;;;;;;;15.65;9.65;;;;;;;;;;6174442;23;20404;-88
2022/05/25 07:42:00;;;;;;;13.45;8.05;;;;;;;;;;6172593;23;20591;-88
2022/05/25 07:45:08;;;;;;;14.65;8.20;;;;;;;;;;6189333;23;20521;-88
2022/05/25 07:48:13;;;;;;;14.40;8.20;;;;;;;;;;6190192;23;20247;-87
2022/05/25 07:51:19;;;;;;;10.98;6.65;;;;;;;;;;6174239;23;20243;-88
2022/05/25 07:54:24;;;;;;;13.63;8.02;;;;;;;;;;6174963;23;20283;-89
2022/05/25 07:57:30;;;;;;;11.40;7.45;;;;;;;;;;6173915;23;20287;-87
2022/05/25 08:00:40;;;;;;;13.52;7.80;;;;;;;;;;6176774;23;20409;-88
2022/05/25 08:07:10;;;;;;;12.10;7.63;;;;;;;;;;6194830;23;20191;-89
2022/05/25 08:10:21;;;;;;;12.65;8.15;;;;;;;;;;6176115;23;20199;-88
2022/05/25 08:13:30;;;;;;;18.35;10.63;;;;;;;;;;6175687;23;20438;-87
2022/05/25 08:16:42;;;;;;;13.68;8.40;;;;;;;;;;6174235;23;20287;-85
2022/05/25 08:19:48;;;;;;;13.40;8.30;;;;;;;;;;6174869;23;20485;-86
2022/05/25 08:22:54;;;;;;;13.18;8.25;;;;;;;;;;6195142;23;20207;-86
2022/05/25 08:25:59;;;;;;;14.00;8.02;;;;;;;;;;6177213;23;20184;-88
2022/05/25 08:29:04;;;;;;;19.10;8.18;;;;;;;;;;6182516;23;20164;-88
2022/05/25 08:32:11;;;;;;;11.80;6.80;;;;;;;;;;6193242;23;20200;-88
2022/05/25 08:35:17;;;;;;;10.10;6.45;;;;;;;;;;6192856;23;20430;-86
2022/05/25 08:38:25;;;;;;;15.65;6.43;;;;;;;;;;6209381;23;20196;-85
2022/05/25 08:41:33;;;;;;;7.47;5.68;;;;;;;;;;6193335;23;20176;-85
2022/05/25 08:44:38;;;;;;;8.85;5.75;;;;;;;;;;6192668;23;20210;-86
2022/05/25 08:47:47;;;;;;;9.77;5.25;;;;;;;;;;6192984;23;20180;-87
2022/05/25 08:50:53;;;;;;;7.32;5.22;;;;;;;;;;6178524;23;20188;-88
2022/05/25 08:54:00;;;;;;;11.50;5.38;;;;;;;;;;6196694;23;20176;-87
2022/05/25 08:57:07;;;;;;;12.85;6.45;;;;;;;;;;6192820;23;20195;-88
2022/05/25 09:00:14;;;;;;;4.03;2.83;;;;;;;;;;6176672;23;20172;-88
2022/05/25 09:03:28;;;;;;;5.50;3.05;;;;;;;;;;6176556;23;20178;-86
2022/05/25 09:06:47;;;;;;;4.28;2.90;;;;;;;;;;6194194;23;20207;-87
2022/05/25 09:09:53;;;;;;;6.32;2.38;;;;;;;;;;6175962;23;20179;-87
2022/05/25 09:13:06;;;;;;;7.13;3.20;;;;;;;;;;6195405;23;20214;-88
2022/05/25 09:16:19;;;;;;;7.55;3.15;;;;;;;;;;6175318;23;20237;-87
2022/05/25 09:19:32;;;;;;;6.47;2.63;;;;;;;;;;6176816;23;20175;-88
2022/05/25 09:22:41;;;;;;;7.13;2.28;;;;;;;;;;6175925;23;20190;-88
2022/05/25 09:25:47;;;;;;;7.40;2.20;;;;;;;;;;6176067;23;20252;-89
2022/05/25 09:28:56;;;;;;;9.27;2.10;;;;;;;;;;6193271;23;20179;-88
2022/05/25 09:32:08;;;;;;;7.60;2.08;;;;;;;;;;6176053;23;20196;-87
2022/05/25 09:35:17;;;;;;;5.43;2.00;;;;;;;;;;6177258;23;20589;-89
2022/05/25 09:38:38;;;;;;;7.80;2.35;;;;;;;;;;6175553;23;20179;-89
2022/05/25 09:41:45;;;;;;;3.15;1.65;;;;;;;;;;6176449;23;20168;-89
2022/05/25 09:44:52;;;;;;;6.68;1.63;;;;;;;;;;6175759;23;20227;-88
2022/05/25 09:47:59;;;;;;;11.32;3.80;;;;;;;;;;6175757;23;20179;-89
2022/05/25 09:51:20;;;;;;;2.65;1.50;;;;;;;;;;6176408;23;20199;-87
2022/05/25 09:54:28;;;;;;;8.00;1.60;;;;;;;;;;6210784;23;20172;-88
2022/05/25 09:57:36;;;;;;;5.05;1.85;;;;;;;;;;6190232;23;20191;-88
2022/05/25 10:01:04;;;;;;;2.72;1.30;;;;;;;;;;6191398;23;20196;-87
2022/05/25 10:04:10;;;;;;;4.03;1.58;;;;;;;;;;6179031;23;20514;-89
2022/05/25 10:07:23;;;;;;;5.70;1.70;;;;;;;;;;6180783;23;20171;-89
2022/05/25 10:10:32;;;;;;;3.45;1.30;;;;;;;;;;6178994;23;22137;-89
2022/05/25 10:13:40;;;;;;;2.95;1.45;;;;;;;;;;6179432;23;20224;-89
2022/05/25 10:16:46;;;;;;;3.25;1.55;;;;;;;;;;6174431;23;20215;-90
2022/05/25 10:19:52;;;;;;;1.90;1.50;;;;;;;;;;6175317;23;20183;-84
2022/05/25 10:23:18;;;;;;;3.88;1.45;;;;;;;;;;6176874;23;20191;-87
2022/05/25 10:26:32;;;;;;;3.15;1.40;;;;;;;;;;6176689;23;20171;-88
2022/05/25 10:36:49;;;;;;;4.50;1.50;;;;;;;;;;6192476;23;20171;-88
2022/05/25 10:40:03;;;;;;;3.03;1.50;;;;;;;;;;6175647;23;20176;-88
2022/05/25 10:43:14;;;;;;;5.53;1.80;;;;;;;;;;6158851;23;20280;-89
2022/05/25 10:46:21;;;;;;;3.28;2.05;;;;;;;;;;6177001;23;20175;-87
2022/05/25 10:49:31;;;;;;;2.28;1.20;;;;;;;;;;6177610;23;20179;-89
2022/05/25 10:52:39;;;;;;;3.63;1.52;;;;;;;;;;6173393;23;20203;-89
2022/05/25 10:55:51;;;;;;;3.33;1.40;;;;;;;;;;6175500;23;20528;-88
2022/05/25 10:59:04;;;;;;;4.18;1.50;;;;;;;;;;6173939;23;20292;-88
2022/05/25 11:02:18;;;;;;;1.80;1.20;;;;;;;;;;6174195;23;20183;-87
2022/05/25 11:05:32;;;;;;;2.38;1.13;;;;;;;;;;6173472;23;20191;-87
2022/05/25 11:08:44;;;;;;;3.45;1.10;;;;;;;;;;6175045;23;20644;-88
2022/05/25 11:11:54;;;;;;;4.65;1.30;;;;;;;;;;6174325;23;20263;-89
2022/05/25 11:15:04;;;;;;;3.53;1.35;;;;;;;;;;6173183;23;20463;-88
2022/05/25 11:18:22;;;;;;;5.18;1.10;;;;;;;;;;6190646;23;20469;-87
2022/05/25 11:21:36;;;;;;;3.42;1.27;;;;;;;;;;6174318;23;20430;-88
2022/05/25 11:24:51;;;;;;;1.48;0.90;;;;;;;;;;6173300;23;20528;-87
2022/05/25 11:28:07;;;;;;;5.00;1.00;;;;;;;;;;6172370;23;20175;-87
2022/05/25 11:31:29;;;;;;;1.00;0.80;;;;;;;;;;6189311;23;20249;-87
2022/05/25 11:34:46;;;;;;;1.98;1.10;;;;;;;;;;6191820;23;20175;-89
2022/05/25 11:37:59;;;;;;;1.95;0.82;;;;;;;;;;6173378;23;20172;-88
2022/05/25 11:41:13;;;;;;;2.30;1.10;;;;;;;;;;6174391;23;20168;-88
2022/05/25 11:44:41;;;;;;;3.47;1.02;;;;;;;;;;6173307;23;20243;-90
2022/05/25 11:48:00;;;;;;;5.75;1.20;;;;;;;;;;6174409;23;20179;-87
2022/05/25 11:51:10;;;;;;;0.80;0.70;;;;;;;;;;6167084;23;20195;-86
2022/05/25 11:54:24;;;;;;;2.25;1.05;;;;;;;;;;6182214;23;20177;-86
2022/05/25 11:57:34;;;;;;;2.97;1.20;;;;;;;;;;6195899;23;20571;-87
2022/05/25 12:00:46;;;;;;;3.83;0.98;;;;;;;;;;6179126;23;20302;-87
2022/05/25 12:04:11;;;;;;;2.22;1.00;;;;;;;;;;6181411;23;20175;-87
2022/05/25 12:07:33;;;;;;;2.88;1.08;;;;;;;;;;6179514;23;20180;-88
2022/05/25 12:10:42;;;;;;;3.22;1.13;;;;;;;;;;6192636;23;20191;-86
2022/05/25 12:13:49;;;;;;;1.88;1.10;;;;;;;;;;6179995;23;20172;-86
2022/05/25 12:17:12;;;;;;;1.73;1.20;;;;;;;;;;6188517;23;20211;-85
2022/05/25 12:20:22;;;;;;;1.63;1.02;;;;;;;;;;6192701;23;20255;-86
2022/05/25 12:23:30;;;;;;;2.63;0.98;;;;;;;;;;6173890;23;20319;-87
2022/05/25 12:26:38;;;;;;;1.85;1.00;;;;;;;;;;6173152;23;20172;-87
2022/05/25 12:29:45;;;;;;;2.20;0.95;;;;;;;;;;6176173;23;20171;-88
2022/05/25 12:32:52;;;;;;;1.45;0.90;;;;;;;;;;6174942;23;20199;-87
2022/05/25 12:36:02;;;;;;;1.77;0.98;;;;;;;;;;6176289;23;20176;-86
2022/05/25 12:39:07;;;;;;;1.40;0.80;;;;;;;;;;6175005;23;20175;-87
2022/05/25 12:42:28;;;;;;;3.42;0.95;;;;;;;;;;6174025;23;20520;-86
2022/05/25 12:49:35;;;;;;;2.30;1.00;;;;;;;;;;6196011;23;20167;-86
2022/05/25 12:52:43;;;;;;;3.30;0.90;;;;;;;;;;6176274;23;20195;-87
2022/05/25 12:55:54;;;;;;;3.30;1.00;;;;;;;;;;6193068;23;20183;-86
2022/05/25 12:59:02;;;;;;;3.05;1.17;;;;;;;;;;6193358;23;20177;-87
2022/05/25 13:02:15;;;;;;;4.80;0.90;;;;;;;;;;6175664;23;20180;-86
2022/05/25 13:05:39;;;;;;;3.15;1.00;;;;;;;;;;6175909;23;20180;-87
2022/05/25 13:09:08;;;;;;;3.22;0.85;;;;;;;;;;6193931;23;20179;-87
2022/05/25 13:12:33;;;;;;;10.98;2.03;;;;;;;;;;6176048;23;20322;-87
2022/05/25 13:15:47;;;;;;;1.45;1.15;;;;;;;;;;6175651;23;20412;-87
2022/05/25 13:18:55;;;;;;;2.78;1.17;;;;;;;;;;6193079;23;20175;-86
2022/05/25 13:22:22;;;;;;;2.63;1.40;;;;;;;;;;6177748;23;20168;-88
2022/05/25 13:25:29;;;;;;;2.92;1.10;;;;;;;;;;6175897;23;20176;-88
2022/05/25 13:28:43;;;;;;;1.33;0.90;;;;;;;;;;6176733;23;20176;-88
2022/05/25 13:31:50;;;;;;;2.58;0.80;;;;;;;;;;6176040;23;20278;-88
2022/05/25 13:34:58;;;;;;;2.35;0.70;;;;;;;;;;6175244;23;20264;-87
2022/05/25 13:38:08;;;;;;;2.30;0.93;;;;;;;;;;6193628;23;20206;-88
2022/05/25 13:41:17;;;;;;;1.98;1.00;;;;;;;;;;6193402;23;20172;-88
2022/05/25 13:44:26;;;;;;;2.60;1.20;;;;;;;;;;6175277;23;20168;-88
2022/05/25 13:47:33;;;;;;;4.57;1.02;;;;;;;;;;6173531;23;20245;-87
2022/05/25 13:50:39;;;;;;;3.15;1.02;;;;;;;;;;6174985;23;20175;-89
2022/05/25 13:53:44;;;;;;;1.17;1.00;;;;;;;;;;6194322;23;20176;-88
2022/05/25 13:56:52;;;;;;;4.40;1.15;;;;;;;;;;6178501;23;20175;-88
2022/05/25 13:59:57;;;;;;;4.38;1.05;;;;;;;;;;6177904;23;20175;-88
2022/05/25 14:03:05;;;;;;;3.60;1.08;;;;;;;;;;6194932;23;20223;-87
2022/05/25 14:06:14;;;;;;;1.65;1.10;;;;;;;;;;6183154;23;20179;-88
2022/05/25 14:12:44;;;;;;;4.97;1.30;;;;;;;;;;6199718;23;20230;-87
2022/05/25 14:15:58;;;;;;;4.57;1.33;;;;;;;;;;6178108;23;20399;-87
2022/05/25 14:19:05;;;;;;;2.92;1.08;;;;;;;;;;6176046;23;20207;-87
2022/05/25 14:22:11;;;;;;;2.30;1.10;;;;;;;;;;6175389;23;20240;-88
2022/05/25 14:25:25;;;;;;;3.92;1.10;;;;;;;;;;6176554;23;20234;-87
2022/05/25 14:28:33;;;;;;;6.32;3.75;;;;;;;;;;6180724;23;20175;-86
2022/05/25 14:31:44;;;;;;;3.65;1.08;;;;;;;;;;6179506;23;20208;-88
2022/05/25 14:38:12;;;;;;;2.45;0.98;;;;;;;;;;6180125;23;20176;-87
2022/05/25 14:41:23;;;;;;;2.55;1.00;;;;;;;;;;6201615;23;20180;-87
2022/05/25 14:44:39;;;;;;;3.13;1.30;;;;;;;;;;6181769;23;20191;-86
2022/05/25 14:47:47;;;;;;;2.28;1.38;;;;;;;;;;6181708;23;20800;-84
2022/05/25 14:51:01;;;;;;;5.10;1.17;;;;;;;;;;6185876;23;20219;-87
2022/05/25 14:54:10;;;;;;;2.30;1.05;;;;;;;;;;6186117;23;20175;-87
2022/05/25 14:57:18;;;;;;;5.07;0.95;;;;;;;;;;6187174;23;20426;-88
2022/05/25 15:00:23;;;;;;;2.10;1.15;;;;;;;;;;6188137;23;20338;-89
2022/05/25 15:03:34;;;;;;;4.95;1.45;;;;;;;;;;6210072;23;20175;-88
2022/05/25 15:07:01;;;;;;;2.22;1.00;;;;;;;;;;6191100;23;20155;-87
2022/05/25 15:10:14;;;;;;;1.58;0.98;;;;;;;;;;6191605;23;20188;-88
2022/05/25 15:18:29;;;;;;;2.88;1.27;;;;;;;;;;6184040;23;20196;-87
2022/05/25 15:20:29;;;;;;;5.28;1.10;;;;;;;;;;6189795;23;20187;-88
2022/05/25 15:23:37;;;;;;;3.22;1.20;;;;;;;;;;6173280;23;20191;-88
2022/05/25 15:26:54;;;;;;;3.88;1.20;;;;;;;;;;6174195;23;20175;-87
2022/05/25 15:30:01;;;;;;;2.15;1.50;;;;;;;;;;6192225;23;20190;-88
2022/05/25 15:33:08;;;;;;;4.05;1.10;;;;;;;;;;6174236;23;20231;-87
2022/05/25 15:36:14;;;;;;;3.53;1.08;;;;;;;;;;6173164;23;20170;-88
2022/05/25 15:39:21;;;;;;;5.53;2.58;;;;;;;;;;6182148;23;20175;-86
2022/05/25 15:42:28;;;;;;;2.25;1.63;;;;;;;;;;6179123;23;20247;-89
2022/05/25 15:45:34;;;;;;;2.05;1.33;;;;;;;;;;6175468;23;20207;-87
2022/05/25 15:48:42;;;;;;;4.13;1.05;;;;;;;;;;6190745;23;20176;-88
2022/05/25 15:51:49;;;;;;;3.20;1.20;;;;;;;;;;6173873;23;20551;-87
2022/05/25 15:54:58;;;;;;;2.42;1.42;;;;;;;;;;6191318;23;20187;-87
2022/05/25 15:58:04;;;;;;;2.15;1.05;;;;;;;;;;6192269;23;20203;-89
2022/05/25 16:01:11;;;;;;;1.17;1.00;;;;;;;;;;6175899;23;20172;-88
2022/05/25 16:04:20;;;;;;;4.82;1.08;;;;;;;;;;6177151;23;20167;-89
2022/05/25 16:11:04;;;;;;;4.20;1.30;;;;;;;;;;6181000;23;20183;-89
2022/05/25 16:14:12;;;;;;;3.65;1.15;;;;;;;;;;6181143;23;20176;-87
2022/05/25 16:17:17;;;;;;;2.22;1.00;;;;;;;;;;6179827;23;20557;-89
2022/05/25 16:20:24;;;;;;;1.65;1.20;;;;;;;;;;6193634;23;20207;-88
2022/05/25 16:23:32;;;;;;;1.00;0.90;;;;;;;;;;6176782;23;20262;-88
2022/05/25 16:26:38;;;;;;;3.47;1.40;;;;;;;;;;6175312;23;20171;-89
2022/05/25 16:30:01;;;;;;;1.42;1.10;;;;;;;;;;6175299;23;20254;-88
2022/05/25 16:33:07;;;;;;;2.53;1.27;;;;;;;;;;6174847;23;20278;-89
2022/05/25 16:36:12;;;;;;;1.02;0.93;;;;;;;;;;6177017;23;20287;-88
2022/05/25 16:39:21;;;;;;;2.53;1.63;;;;;;;;;;6180314;23;20430;-89
2022/05/25 16:42:28;;;;;;;4.15;2.50;;;;;;;;;;6179910;23;20179;-88
2022/05/25 16:45:38;;;;;;;3.80;1.42;;;;;;;;;;6160179;23;20214;-89
2022/05/25 16:48:43;;;;;;;5.68;1.38;;;;;;;;;;6176320;23;20184;-89
2022/05/25 16:51:48;;;;;;;1.20;1.10;;;;;;;;;;6175158;23;20171;-89
2022/05/25 16:54:53;;;;;;;2.80;1.70;;;;;;;;;;6174665;23;20524;-90
2022/05/25 16:57:58;;;;;;;5.13;1.65;;;;;;;;;;6176102;23;20268;-89
2022/05/25 17:01:06;;;;;;;5.00;1.80;;;;;;;;;;6175675;23;20171;-88
2022/05/25 17:04:13;;;;;;;2.88;1.48;;;;;;;;;;6175734;23;20188;-89
2022/05/25 17:07:23;;;;;;;4.63;1.63;;;;;;;;;;6175733;23;20187;-89
2022/05/25 17:10:30;;;;;;;2.90;1.60;;;;;;;;;;6177153;23;20187;-88
2022/05/25 17:13:37;;;;;;;2.42;1.30;;;;;;;;;;6174789;23;20195;-89
2022/05/25 17:16:44;;;;;;;8.40;2.10;;;;;;;;;;6174405;23;20179;-88
2022/05/25 17:23:28;;;;;;;1.95;1.30;;;;;;;;;;6092363;23;20425;-88
2022/05/25 17:26:33;;;;;;;5.28;1.35;;;;;;;;;;6175034;23;20738;-89
2022/05/25 17:29:39;;;;;;;4.47;1.52;;;;;;;;;;6174432;23;20187;-88
2022/05/25 17:32:46;;;;;;;4.32;1.40;;;;;;;;;;6175006;23;20430;-89
2022/05/25 17:42:38;;;;;;;5.35;1.70;;;;;;;;;;6192483;23;20424;-88
2022/05/25 17:45:43;;;;;;;2.40;1.52;;;;;;;;;;6174034;23;20533;-89
2022/05/25 17:48:51;;;;;;;4.35;1.80;;;;;;;;;;6173976;23;20230;-89
2022/05/25 17:51:57;;;;;;;3.53;1.60;;;;;;;;;;6175357;23;20167;-89
2022/05/25 17:55:03;;;;;;;2.20;1.67;;;;;;;;;;6173771;23;20168;-89
2022/05/25 17:58:09;;;;;;;3.80;2.30;;;;;;;;;;6174883;23;20469;-89
2022/05/25 18:01:15;;;;;;;2.17;1.50;;;;;;;;;;6192630;23;20179;-89
2022/05/25 18:04:31;;;;;;;5.85;3.05;;;;;;;;;;6176179;23;20172;-90
2022/05/25 18:07:37;;;;;;;4.03;2.08;;;;;;;;;;6191897;23;20230;-89
2022/05/25 18:10:42;;;;;;;2.80;1.85;;;;;;;;;;6174183;23;20451;-87
2022/05/25 18:13:48;;;;;;;5.25;2.08;;;;;;;;;;6172430;23;20359;-88
2022/05/25 18:16:53;;;;;;;9.38;2.17;;;;;;;;;;6172276;23;20310;-87
2022/05/25 18:20:00;;;;;;;7.65;2.78;;;;;;;;;;6188496;23;20167;-88
2022/05/25 18:23:05;;;;;;;3.33;1.80;;;;;;;;;;6171909;23;20184;-88
2022/05/25 18:26:11;;;;;;;4.40;2.30;;;;;;;;;;6188089;23;20204;-88
2022/05/25 18:29:15;;;;;;;4.82;2.28;;;;;;;;;;6172850;23;20248;-88
2022/05/25 18:32:21;;;;;;;6.03;2.70;;;;;;;;;;6179715;23;20190;-88
2022/05/25 18:35:28;;;;;;;4.10;1.83;;;;;;;;;;6177419;23;20275;-88
2022/05/25 18:38:33;;;;;;;4.43;2.05;;;;;;;;;;6195740;23;20183;-87
2022/05/25 18:41:39;;;;;;;9.20;2.58;;;;;;;;;;6176308;23;20267;-87
2022/05/25 18:44:48;;;;;;;22.33;12.80;;;;;;;;;;6193387;23;20252;-88
2022/05/25 18:47:53;;;;;;;7.07;2.38;;;;;;;;;;6174845;23;20490;-87
2022/05/25 18:51:01;;;;;;;2.85;2.10;;;;;;;;;;6192838;23;20188;-87
2022/05/25 18:54:06;;;;;;;3.92;1.85;;;;;;;;;;6174480;23;20202;-88
2022/05/25 18:57:12;;;;;;;3.50;1.92;;;;;;;;;;6174133;23;20168;-87
2022/05/25 19:00:20;;;;;;;4.65;2.30;;;;;;;;;;6174765;23;20172;-88
2022/05/25 19:03:27;;;;;;;8.25;1.98;;;;;;;;;;6193724;23;20168;-87
2022/05/25 19:06:35;;;;;;;4.20;2.00;;;;;;;;;;6177838;23;20185;-87
2022/05/25 19:09:40;;;;;;;2.53;1.80;;;;;;;;;;6176090;23;20171;-88
2022/05/25 19:12:45;;;;;;;6.00;2.15;;;;;;;;;;6175724;23;20259;-88
2022/05/25 19:15:52;;;;;;;5.05;2.00;;;;;;;;;;6192932;23;20176;-87
2022/05/25 19:18:58;;;;;;;6.90;2.13;;;;;;;;;;6175627;23;20180;-86
2022/05/25 19:22:07;;;;;;;3.23;2.13;;;;;;;;;;6100832;23;1687279;-87
2022/05/25 19:25:15;;;;;;;5.28;1.83;;;;;;;;;;6172617;23;20284;-87
2022/05/25 19:28:21;;;;;;;3.92;1.80;;;;;;;;;;6175022;23;20176;-89
2022/05/25 19:31:30;;;;;;;6.90;2.47;;;;;;;;;;6192207;23;20468;-87